Time;durP1;ratioP1;P1;durP2;ratioP2;P2;SDS_P1;SDS_P2;PMS_P1;PMS_P2;Temp;Humidity;BMP_temperature;BMP_pressure;BME280_temperature;BME280_humidity;BME280_pressure;Samples;Min_cycle;Max_cycle;Signal;HPM_P1;HPM_P2
2022/12/30 00:01:05;;;;;;;24.25;13.52;;;;;;;7.84;nan;101077.84;5038753;28;20037;-71
2022/12/30 00:03:30;;;;;;;23.15;13.20;;;;;;;7.75;nan;101078.97;5035350;28;20013;-71
2022/12/30 00:05:55;;;;;;;25.25;13.50;;;;;;;7.80;nan;101087.09;5033606;28;20095;-71
2022/12/30 00:11:05;;;;;;;23.90;13.70;;;;;;;7.81;nan;101091.34;5034363;28;20031;-72
2022/12/30 00:33:32;;;;;;;24.20;13.98;;;;;;;7.85;nan;101089.97;5035147;28;20101;-71
2022/12/30 00:35:58;;;;;;;27.58;14.63;;;;;;;7.86;nan;101081.09;5038254;28;20029;-72
2022/12/30 00:38:24;;;;;;;22.17;13.82;;;;;;;7.82;nan;101074.59;5034793;28;20031;-71
2022/12/30 00:43:33;;;;;;;21.08;13.40;;;;;;;7.83;nan;101081.47;5031608;28;20099;-71
2022/12/30 00:45:58;;;;;;;24.67;13.63;;;;;;;7.88;nan;101086.97;5034964;28;20458;-72
2022/12/30 00:56:36;;;;;;;24.73;13.60;;;;;;;7.84;nan;101095.41;5037647;28;20036;-71
2022/12/30 00:59:03;;;;;;;23.40;13.73;;;;;;;7.93;nan;101094.25;5031135;28;20029;-71
2022/12/30 01:01:29;;;;;;;25.65;13.40;;;;;;;7.91;nan;101095.47;5039444;28;20120;-72
2022/12/30 01:03:54;;;;;;;25.33;13.85;;;;;;;7.93;nan;101094.25;5036326;28;20104;-71
2022/12/30 01:06:20;;;;;;;23.33;14.00;;;;;;;7.94;nan;101092.44;5036111;28;20440;-72
2022/12/30 01:08:45;;;;;;;23.20;13.18;;;;;;;7.84;nan;101080.47;5049466;28;20391;-72
2022/12/30 01:11:10;;;;;;;25.50;12.80;;;;;;;7.92;nan;101086.56;5032845;28;20107;-71
2022/12/30 01:13:36;;;;;;;22.27;12.93;;;;;;;7.93;nan;101090.84;5030006;28;20032;-72
2022/12/30 01:16:13;;;;;;;25.23;13.45;;;;;;;7.95;nan;101094.06;5034546;28;20033;-72
2022/12/30 01:18:39;;;;;;;24.65;13.20;;;;;;;7.94;nan;101097.69;5032228;28;20032;-71
2022/12/30 01:21:05;;;;;;;20.42;12.88;;;;;;;7.93;nan;101091.66;5032429;28;20028;-72
2022/12/30 01:23:31;;;;;;;21.83;12.68;;;;;;;7.91;nan;101085.78;5032474;28;20492;-72
2022/12/30 01:25:59;;;;;;;23.77;12.57;;;;;;;7.93;nan;101093.47;5033299;28;20081;-71
2022/12/30 01:28:28;;;;;;;21.80;12.63;;;;;;;7.85;nan;101081.28;5039378;28;20071;-72
2022/12/30 01:30:53;;;;;;;21.50;13.20;;;;;;;7.84;nan;101077.84;5036489;28;20031;-71
2022/12/30 01:33:19;;;;;;;22.70;13.38;;;;;;;7.89;nan;101085.16;5034173;28;20029;-72
2022/12/30 01:35:44;;;;;;;22.65;12.60;;;;;;;7.88;nan;101088.78;5031737;28;20028;-71
2022/12/30 01:38:09;;;;;;;23.02;12.43;;;;;;;7.84;nan;101077.84;5035743;28;20056;-72
2022/12/30 01:40:40;;;;;;;22.13;13.10;;;;;;;7.85;nan;101081.28;5033009;28;20072;-71
2022/12/30 01:43:10;;;;;;;24.67;12.93;;;;;;;7.79;nan;101068.94;5030705;28;20242;-71
2022/12/30 01:45:36;;;;;;;23.77;12.57;;;;;;;7.72;nan;101068.06;5031817;28;20482;-72
2022/12/30 01:48:25;;;;;;;22.60;12.65;;;;;;;7.75;nan;101063.25;5029900;28;20061;-72
2022/12/30 01:50:59;;;;;;;;;;;;;;;7.79;nan;101079.44;5038615;28;20369;-71
2022/12/30 01:53:30;;;;;;;22.25;12.18;;;;;;;7.78;nan;101077.78;5038575;28;19917;-72
2022/12/30 01:55:58;;;;;;;23.52;12.88;;;;;;;7.67;nan;101060.78;5034961;28;20033;-72
2022/12/30 01:58:45;;;;;;;23.10;13.35;;;;;;;7.73;nan;101062.63;5030940;28;20022;-70
2022/12/30 02:01:11;;;;;;;25.98;12.75;;;;;;;7.70;nan;101060.38;5033673;28;20029;-70
2022/12/30 02:03:44;;;;;;;25.42;13.60;;;;;;;7.73;nan;101062.63;5032532;28;20387;-70
2022/12/30 02:06:11;;;;;;;22.85;13.13;;;;;;;7.66;nan;101059.97;5035426;28;20118;-70
2022/12/30 02:08:37;;;;;;;22.77;13.70;;;;;;;7.67;nan;101055.53;5031957;28;20043;-70
2022/12/30 02:11:05;;;;;;;25.77;12.63;;;;;;;7.68;nan;101072.88;5032559;28;20033;-70
2022/12/30 02:13:31;;;;;;;21.70;13.38;;;;;;;7.60;nan;101057.28;5035630;28;20025;-70
2022/12/30 02:16:18;;;;;;;25.20;13.43;;;;;;;7.67;nan;101069.44;5048503;28;20124;-70
2022/12/30 02:19:01;;;;;;;23.65;13.13;;;;;;;7.64;nan;101072.44;5033222;28;20083;-70
2022/12/30 02:22:08;;;;;;;23.67;14.00;;;;;;;7.62;nan;101057.91;5028895;28;20025;-70
2022/12/30 02:24:56;;;;;;;25.92;13.13;;;;;;;7.62;nan;101052.69;4950719;28;20043;-70
2022/12/30 02:27:27;;;;;;;24.13;12.95;;;;;;;7.61;nan;101056.28;4949406;29;20051;-70
2022/12/30 02:30:02;;;;;;;24.05;13.98;;;;;;;7.59;nan;101053.03;4946231;29;20548;-70
2022/12/30 02:32:54;;;;;;;25.63;14.40;;;;;;;7.48;nan;101041.25;4949081;28;20619;-70
2022/12/30 02:35:43;;;;;;;25.73;14.25;;;;;;;7.54;nan;101047.56;4936765;28;20047;-70
2022/12/30 02:38:29;;;;;;;23.77;13.75;;;;;;;7.53;nan;101051.97;4945247;28;20152;-70
2022/12/30 02:46:53;;;;;;;25.02;14.07;;;;;;;7.45;nan;101042.44;4950322;28;20034;-70
2022/12/30 02:49:21;;;;;;;30.25;14.40;;;;;;;7.42;nan;101037.59;4948307;29;20556;-70
2022/12/30 02:54:33;;;;;;;25.45;14.27;;;;;;;7.41;nan;101035.97;4959679;28;20099;-70
2022/12/30 02:56:59;;;;;;;23.15;13.95;;;;;;;7.38;nan;101025.06;4996663;28;20124;-70
2022/12/30 03:05:47;;;;;;;24.75;14.02;;;;;;;7.44;nan;101042.63;5040576;28;20055;-70
2022/12/30 03:08:42;;;;;;;25.35;13.48;;;;;;;7.43;nan;101038.41;5037756;28;20052;-70
2022/12/30 03:11:16;;;;;;;29.30;14.13;;;;;;;7.41;nan;101035.16;5033708;28;20042;-70
2022/12/30 03:14:03;;;;;;;23.55;14.23;;;;;;;7.35;nan;101023.63;5032886;28;20041;-70
2022/12/30 03:16:28;;;;;;;25.83;14.02;;;;;;;7.40;nan;101030.94;5041215;28;20029;-70
2022/12/30 03:18:55;;;;;;;26.90;14.27;;;;;;;7.33;nan;101025.63;5038427;28;20076;-70
2022/12/30 03:21:23;;;;;;;24.65;14.18;;;;;;;7.37;nan;101036.50;5034205;28;20026;-70
2022/12/30 03:29:27;;;;;;;24.15;13.57;;;;;;;7.31;nan;101024.19;5034724;28;20033;-70
2022/12/30 03:31:54;;;;;;;26.15;14.35;;;;;;;7.20;nan;101017.63;5041524;28;20025;-70
2022/12/30 03:34:19;;;;;;;24.63;14.20;;;;;;;7.29;nan;101024.34;5036805;28;20064;-70
2022/12/30 03:36:49;;;;;;;28.90;14.55;;;;;;;7.34;nan;101037.69;5044442;28;20068;-70
2022/12/30 03:39:21;;;;;;;21.92;13.07;;;;;;;7.34;nan;101037.69;5033857;28;20468;-70
2022/12/30 03:41:49;;;;;;;26.75;13.43;;;;;;;7.36;nan;101035.72;5031988;28;20415;-70
2022/12/30 03:44:17;;;;;;;21.52;13.18;;;;;;;7.37;nan;101039.94;5046642;28;20023;-71
2022/12/30 03:46:44;;;;;;;23.33;12.50;;;;;;;7.37;nan;101039.94;5034097;28;20031;-70
2022/12/30 03:49:10;;;;;;;23.00;13.10;;;;;;;7.35;nan;101033.28;5035819;28;20049;-70
2022/12/30 03:51:35;;;;;;;25.13;13.35;;;;;;;7.31;nan;101032.84;5034579;28;20107;-70
2022/12/30 03:54:00;;;;;;;25.73;13.07;;;;;;;7.33;nan;101043.16;5039259;28;20025;-70
2022/12/30 03:56:26;;;;;;;21.90;12.38;;;;;;;7.37;nan;101034.69;5031795;28;20546;-70
2022/12/30 03:58:51;;;;;;;20.92;13.15;;;;;;;7.42;nan;101047.25;5037084;28;20051;-70
2022/12/30 04:01:17;;;;;;;21.70;12.25;;;;;;;7.33;nan;101030.06;5035687;28;20017;-70
2022/12/30 04:03:42;;;;;;;21.35;12.05;;;;;;;7.44;nan;101046.06;5037613;28;20013;-70
2022/12/30 04:06:07;;;;;;;21.60;12.25;;;;;;;7.46;nan;101043.25;5039963;28;20079;-70
2022/12/30 04:08:33;;;;;;;18.80;11.57;;;;;;;7.48;nan;101043.88;5033819;28;20468;-70
2022/12/30 04:10:58;;;;;;;22.13;12.07;;;;;;;7.51;nan;101040.06;5038024;28;20032;-69
2022/12/30 04:13:23;;;;;;;21.38;11.77;;;;;;;7.51;nan;101040.88;5031686;28;20029;-70
2022/12/30 04:15:51;;;;;;;22.45;11.82;;;;;;;7.55;nan;101043.94;5032477;28;20025;-69
2022/12/30 04:18:17;;;;;;;22.55;12.13;;;;;;;7.56;nan;101050.78;5036178;28;20029;-70
2022/12/30 04:20:43;;;;;;;20.92;12.48;;;;;;;7.57;nan;101049.81;5033975;28;20025;-70
2022/12/30 04:23:09;;;;;;;20.80;11.25;;;;;;;7.56;nan;101048.19;5031639;28;20029;-70
2022/12/30 04:25:34;;;;;;;18.48;11.65;;;;;;;7.57;nan;101044.56;5031088;28;20149;-70
2022/12/30 04:28:00;;;;;;;22.42;11.23;;;;;;;7.58;nan;101049.59;5045132;28;20029;-70
2022/12/30 04:30:25;;;;;;;22.08;12.13;;;;;;;7.60;nan;101054.66;5038899;28;20464;-70
2022/12/30 04:32:50;;;;;;;18.70;10.98;;;;;;;7.59;nan;101048.63;5035747;28;20087;-70
2022/12/30 04:35:16;;;;;;;20.20;12.02;;;;;;;7.55;nan;101036.88;5034145;28;20041;-70
2022/12/30 04:37:41;;;;;;;19.02;11.65;;;;;;;7.52;nan;101032.03;5035244;28;20026;-70
2022/12/30 04:40:07;;;;;;;20.65;11.35;;;;;;;7.61;nan;101043.16;5034305;28;20384;-70
2022/12/30 04:42:33;;;;;;;20.02;11.57;;;;;;;7.61;nan;101037.94;5034376;28;20368;-70
2022/12/30 04:44:58;;;;;;;19.00;11.20;;;;;;;7.63;nan;101043.81;5030780;28;20017;-70
2022/12/30 04:47:23;;;;;;;22.88;11.15;;;;;;;7.58;nan;101038.31;5038358;28;20490;-70
2022/12/30 04:49:49;;;;;;;21.83;12.07;;;;;;;7.59;nan;101040.75;5032477;28;20395;-70
2022/12/30 04:52:14;;;;;;;19.65;11.02;;;;;;;7.56;nan;101042.94;5036684;28;20391;-70
2022/12/30 04:54:39;;;;;;;20.55;10.98;;;;;;;7.50;nan;101023.53;5034731;28;20025;-70
2022/12/30 04:57:05;;;;;;;18.40;11.20;;;;;;;7.67;nan;101048.47;5033989;28;20399;-70
2022/12/30 04:59:30;;;;;;;17.55;10.30;;;;;;;7.66;nan;101051.28;5033123;28;20086;-71
2022/12/30 05:01:56;;;;;;;20.63;11.15;;;;;;;7.66;nan;101046.88;5035137;28;20478;-70
2022/12/30 05:04:21;;;;;;;22.65;11.77;;;;;;;7.56;nan;101028.00;5044825;28;20039;-70
2022/12/30 05:06:46;;;;;;;17.33;10.43;;;;;;;7.55;nan;101028.22;5032049;28;20025;-70
2022/12/30 05:09:12;;;;;;;18.85;10.90;;;;;;;7.56;nan;101033.25;5034223;28;20128;-70
2022/12/30 05:11:37;;;;;;;17.70;11.10;;;;;;;7.60;nan;101052.06;5037187;28;20494;-70
2022/12/30 05:14:02;;;;;;;20.70;11.35;;;;;;;7.55;nan;101047.38;5039551;28;20070;-70
2022/12/30 05:16:28;;;;;;;18.52;10.25;;;;;;;7.58;nan;101054.84;5036425;28;20155;-70
2022/12/30 05:18:53;;;;;;;21.30;10.70;;;;;;;7.65;nan;101071.44;5032139;28;20024;-70
2022/12/30 05:21:18;;;;;;;18.30;10.93;;;;;;;7.67;nan;101072.06;5035332;28;20079;-70
2022/12/30 05:26:28;;;;;;;26.05;11.00;;;;;;;7.58;nan;101061.91;5036808;28;20145;-70
2022/12/30 05:28:53;;;;;;;16.95;10.60;;;;;;;7.60;nan;101065.97;5034033;28;20100;-70
2022/12/30 05:31:19;;;;;;;17.70;10.50;;;;;;;7.65;nan;101068.81;5038477;28;20029;-70
2022/12/30 05:33:45;;;;;;;17.83;10.13;;;;;;;7.65;nan;101073.25;5034799;28;20036;-70
2022/12/30 05:36:12;;;;;;;20.52;10.38;;;;;;;7.60;nan;101062.53;5037742;28;20068;-70
2022/12/30 05:38:38;;;;;;;21.55;10.95;;;;;;;7.60;nan;101059.91;5032208;28;20025;-70
2022/12/30 05:41:04;;;;;;;18.20;10.77;;;;;;;7.56;nan;101059.47;5042496;28;20024;-70
2022/12/30 05:43:30;;;;;;;17.23;11.07;;;;;;;7.67;nan;101081.75;5034273;28;20021;-70
2022/12/30 05:45:55;;;;;;;20.23;10.32;;;;;;;7.65;nan;101078.50;5031192;28;20025;-70
2022/12/30 05:48:20;;;;;;;19.25;10.38;;;;;;;7.66;nan;101075.69;5030360;28;20017;-69
2022/12/30 05:50:49;;;;;;;21.58;10.60;;;;;;;7.58;nan;101061.91;5032711;28;20025;-70
2022/12/30 05:53:15;;;;;;;16.45;10.10;;;;;;;7.67;nan;101077.31;5035591;28;20022;-70
2022/12/30 05:55:41;;;;;;;20.35;10.07;;;;;;;7.68;nan;101083.34;5029162;28;20399;-70
2022/12/30 05:58:06;;;;;;;16.52;9.50;;;;;;;7.66;nan;101074.88;5028730;28;20022;-70
2022/12/30 06:00:32;;;;;;;20.10;10.35;;;;;;;7.72;nan;101084.63;5039761;28;20116;-69
2022/12/30 06:02:57;;;;;;;20.88;10.20;;;;;;;7.66;nan;101072.25;5057534;28;20025;-68
2022/12/30 06:05:23;;;;;;;18.90;9.98;;;;;;;7.67;nan;101077.31;5039673;28;20017;-69
2022/12/30 06:07:48;;;;;;;17.70;10.30;;;;;;;7.72;nan;101087.22;5039350;28;20065;-68
2022/12/30 06:10:14;;;;;;;16.55;9.65;;;;;;;7.71;nan;101087.41;5040160;28;20017;-68
2022/12/30 06:12:40;;;;;;;17.55;10.63;;;;;;;7.76;nan;101095.53;5040519;28;20474;-69
2022/12/30 06:15:06;;;;;;;19.08;10.45;;;;;;;7.74;nan;101093.09;5037682;28;20029;-69
2022/12/30 06:17:31;;;;;;;18.40;9.68;;;;;;;7.66;nan;101080.94;5040834;28;20024;-70
2022/12/30 06:19:56;;;;;;;17.33;9.77;;;;;;;7.76;nan;101093.72;5039584;28;20376;-69
2022/12/30 06:22:22;;;;;;;15.43;8.98;;;;;;;7.76;nan;101096.34;5038584;28;20567;-69
2022/12/30 06:24:47;;;;;;;20.13;10.07;;;;;;;7.63;nan;101080.50;5039952;28;20018;-69
2022/12/30 06:27:13;;;;;;;16.17;9.48;;;;;;;7.76;nan;101106.03;5040662;28;20048;-69
2022/12/30 06:29:38;;;;;;;16.92;10.02;;;;;;;7.67;nan;101092.22;5038195;28;20075;-69
2022/12/30 06:32:03;;;;;;;16.98;9.63;;;;;;;7.68;nan;101099.09;5036255;28;20667;-70
2022/12/30 06:34:29;;;;;;;18.67;9.73;;;;;;;7.77;nan;101118.13;5033673;28;20447;-70
2022/12/30 06:36:55;;;;;;;20.70;9.63;;;;;;;7.78;nan;101125.81;5039293;28;20029;-70
2022/12/30 06:39:20;;;;;;;16.70;9.75;;;;;;;7.80;nan;101129.03;5039222;28;20430;-69
2022/12/30 06:41:45;;;;;;;16.52;9.02;;;;;;;7.72;nan;101123.94;5052192;28;20044;-70
2022/12/30 06:44:11;;;;;;;17.05;9.65;;;;;;;7.80;nan;101142.16;5030291;28;20438;-70
2022/12/30 06:46:36;;;;;;;18.77;8.80;;;;;;;7.80;nan;101136.91;5033089;28;20039;-68
2022/12/30 06:49:02;;;;;;;13.75;8.70;;;;;;;7.80;nan;101134.28;5028927;28;20487;-69
2022/12/30 06:51:28;;;;;;;14.82;8.93;;;;;;;7.84;nan;101142.59;5030810;28;20487;-70
2022/12/30 06:53:53;;;;;;;16.98;9.27;;;;;;;7.84;nan;101139.97;5036735;28;20399;-69
2022/12/30 06:56:19;;;;;;;15.85;9.20;;;;;;;7.83;nan;101143.59;5030639;28;20021;-69
2022/12/30 06:58:44;;;;;;;19.33;8.65;;;;;;;7.81;nan;101150.84;5031843;28;20433;-70
2022/12/30 07:01:10;;;;;;;16.02;8.88;;;;;;;7.89;nan;101172.50;5036499;28;20100;-69
2022/12/30 07:03:35;;;;;;;15.73;9.23;;;;;;;7.86;nan;101164.19;5033238;28;20044;-69
2022/12/30 07:06:00;;;;;;;17.25;8.75;;;;;;;7.89;nan;101174.31;5040735;28;20037;-69
2022/12/30 07:08:26;;;;;;;17.02;8.45;;;;;;;7.87;nan;101171.84;5034567;28;20029;-69
2022/12/30 07:10:51;;;;;;;14.50;8.57;;;;;;;7.92;nan;101183.59;5037083;28;20033;-69
2022/12/30 07:13:17;;;;;;;14.55;8.82;;;;;;;7.77;nan;101153.00;5035264;28;20452;-69
2022/12/30 07:15:42;;;;;;;19.00;9.57;;;;;;;7.86;nan;101166.81;5040869;28;20025;-69
2022/12/30 07:18:08;;;;;;;16.90;9.13;;;;;;;7.94;nan;101179.00;5053671;28;20029;-69
2022/12/30 07:20:34;;;;;;;17.00;9.75;;;;;;;7.92;nan;101173.91;5036914;28;20038;-69
2022/12/30 07:22:59;;;;;;;16.30;9.48;;;;;;;7.88;nan;101165.63;5036825;28;20040;-69
2022/12/30 07:25:25;;;;;;;18.08;9.07;;;;;;;7.80;nan;101157.88;5039590;28;20119;-70
2022/12/30 07:27:56;;;;;;;15.55;9.02;;;;;;;7.91;nan;101184.63;5034990;28;20033;-71
2022/12/30 07:30:22;;;;;;;16.95;9.32;;;;;;;7.87;nan;101186.78;5041657;28;20030;-70
2022/12/30 07:32:47;;;;;;;20.05;10.25;;;;;;;7.84;nan;101180.09;5037101;28;20025;-69
2022/12/30 07:35:13;;;;;;;19.63;10.13;;;;;;;7.88;nan;101177.94;5037491;28;20052;-70
2022/12/30 07:37:38;;;;;;;21.67;11.00;;;;;;;7.84;nan;101177.47;5036880;28;20025;-70
2022/12/30 07:40:04;;;;;;;18.20;10.32;;;;;;;7.82;nan;101182.09;5037092;28;20017;-71
2022/12/30 07:42:29;;;;;;;20.17;9.82;;;;;;;7.82;nan;101181.28;5037451;28;20106;-70
2022/12/30 07:44:55;;;;;;;17.08;10.10;;;;;;;7.72;nan;101176.38;5041062;28;20669;-69
2022/12/30 07:47:20;;;;;;;18.75;9.20;;;;;;;7.82;nan;101202.28;5033383;28;20104;-71
2022/12/30 07:49:46;;;;;;;16.58;9.40;;;;;;;7.83;nan;101204.72;5049534;28;20025;-71
2022/12/30 07:52:11;;;;;;;17.92;9.68;;;;;;;7.78;nan;101196.59;5038367;28;20032;-70
2022/12/30 07:54:36;;;;;;;17.65;9.95;;;;;;;7.82;nan;101197.03;5037099;28;20030;-69
2022/12/30 07:57:02;;;;;;;16.02;9.65;;;;;;;7.83;nan;101207.34;5040135;28;20026;-70
2022/12/30 07:59:27;;;;;;;16.48;9.43;;;;;;;7.91;nan;101224.75;5039871;28;20468;-71
2022/12/30 08:01:53;;;;;;;16.77;9.82;;;;;;;7.90;nan;101223.13;5036897;28;20029;-69
2022/12/30 08:04:18;;;;;;;16.83;10.00;;;;;;;7.96;nan;101226.81;5050298;28;20025;-69
2022/12/30 08:06:44;;;;;;;19.17;10.48;;;;;;;7.86;nan;101206.16;5040266;28;20021;-70
2022/12/30 08:09:09;;;;;;;15.85;9.27;;;;;;;7.92;nan;101210.63;5042819;28;20037;-70
2022/12/30 08:11:34;;;;;;;15.57;9.25;;;;;;;8.01;nan;101206.09;5031663;28;20236;-70
2022/12/30 08:14:00;;;;;;;17.33;9.35;;;;;;;7.96;nan;101197.97;5035848;28;20499;-70
2022/12/30 08:16:26;;;;;;;16.70;9.65;;;;;;;7.96;nan;101201.41;5033191;28;20105;-70
2022/12/30 08:18:51;;;;;;;16.77;9.38;;;;;;;8.04;nan;101203.06;5045051;28;20766;-71
2022/12/30 08:21:18;;;;;;;14.88;8.88;;;;;;;8.13;nan;101217.69;5033328;28;20029;-70
2022/12/30 08:23:45;;;;;;;18.67;9.38;;;;;;;8.03;nan;101211.97;5036380;28;20035;-72
2022/12/30 08:26:19;;;;;;;17.73;9.77;;;;;;;8.17;nan;101223.38;5031314;28;20041;-70
2022/12/30 08:28:45;;;;;;;15.40;9.10;;;;;;;8.17;nan;101234.69;5036159;28;20108;-72
2022/12/30 08:31:21;;;;;;;19.73;9.00;;;;;;;8.19;nan;101227.44;5037421;28;20107;-71
2022/12/30 08:33:47;;;;;;;14.07;8.68;;;;;;;8.16;nan;101224.38;5031946;28;20032;-71
2022/12/30 08:36:16;;;;;;;16.83;10.63;;;;;;;8.24;nan;101234.75;5036909;28;20021;-70
2022/12/30 08:38:44;;;;;;;18.58;9.70;;;;;;;8.29;nan;101220.06;5036158;28;20380;-70
2022/12/30 08:41:20;;;;;;;15.27;8.83;;;;;;;8.30;nan;101215.63;5031313;28;20108;-70
2022/12/30 08:43:46;;;;;;;15.48;9.80;;;;;;;8.26;nan;101223.06;5034598;28;20537;-73
2022/12/30 08:46:12;;;;;;;16.45;10.10;;;;;;;8.29;nan;101229.75;5032044;28;20398;-68
2022/12/30 08:48:37;;;;;;;18.13;10.82;;;;;;;8.37;nan;101236.66;5050302;28;20121;-68
2022/12/30 08:51:05;;;;;;;16.70;10.43;;;;;;;8.39;nan;101235.47;5031648;28;20060;-69
2022/12/30 08:53:32;;;;;;;17.77;10.15;;;;;;;8.41;nan;101241.38;5037882;28;20048;-68
2022/12/30 08:56:12;;;;;;;19.25;10.88;;;;;;;8.43;nan;101246.47;5040318;28;20033;-66
2022/12/30 08:58:38;;;;;;;15.85;10.52;;;;;;;8.37;nan;101244.53;5032248;28;20079;-67
2022/12/30 09:01:08;;;;;;;17.27;10.30;;;;;;;8.44;nan;101254.13;5036699;28;20025;-66
2022/12/30 09:03:35;;;;;;;16.95;10.52;;;;;;;8.46;nan;101259.19;5036754;28;20028;-65
2022/12/30 09:06:01;;;;;;;17.95;10.43;;;;;;;8.43;nan;101254.34;5035861;28;20072;-65
2022/12/30 09:08:26;;;;;;;18.77;9.88;;;;;;;8.47;nan;101256.34;5037699;28;20551;-66
2022/12/30 09:11:04;;;;;;;17.17;9.70;;;;;;;8.48;nan;101265.88;5036985;28;20017;-69
2022/12/30 09:13:30;;;;;;;16.75;9.65;;;;;;;8.48;nan;101262.44;5050534;28;20036;-68
2022/12/30 09:15:56;;;;;;;16.83;9.98;;;;;;;8.50;nan;101265.69;5032316;28;20025;-68
2022/12/30 09:18:23;;;;;;;20.25;11.95;;;;;;;8.51;nan;101268.09;5032177;28;20052;-69
2022/12/30 09:20:49;;;;;;;17.45;9.40;;;;;;;8.44;nan;101263.81;5038675;28;20029;-68
2022/12/30 09:23:14;;;;;;;18.02;9.07;;;;;;;8.55;nan;101272.97;5032580;28;20025;-68
2022/12/30 09:25:43;;;;;;;17.83;9.77;;;;;;;8.49;nan;101280.59;5042558;28;20045;-68
2022/12/30 09:28:08;;;;;;;15.48;9.20;;;;;;;8.43;nan;101270.06;5036389;28;20029;-71
2022/12/30 09:30:34;;;;;;;17.25;9.63;;;;;;;8.48;nan;101272.94;5045234;28;20028;-71
2022/12/30 09:32:59;;;;;;;15.77;9.57;;;;;;;8.57;nan;101287.56;5033811;28;20487;-73
2022/12/30 09:35:25;;;;;;;17.27;10.10;;;;;;;8.55;nan;101279.06;5030691;28;20041;-71
2022/12/30 09:37:50;;;;;;;22.17;14.15;;;;;;;8.60;nan;101281.13;5031492;28;20044;-71
2022/12/30 09:40:22;;;;;;;16.95;10.32;;;;;;;8.59;nan;101274.22;5038792;28;20061;-69
2022/12/30 09:45:51;;;;;;;18.27;10.38;;;;;;;8.59;nan;101275.03;5029686;28;20454;-70
2022/12/30 09:48:26;;;;;;;17.27;9.20;;;;;;;8.67;nan;101282.78;5034370;28;20550;-71
2022/12/30 09:51:02;;;;;;;22.02;11.65;;;;;;;8.61;nan;101265.16;5038145;28;20375;-70
2022/12/30 09:53:40;;;;;;;20.90;11.43;;;;;;;8.71;nan;101268.28;5042661;28;20028;-72
2022/12/30 09:56:17;;;;;;;19.05;11.80;;;;;;;8.63;nan;101249.22;5037868;28;20538;-71
2022/12/30 09:58:45;;;;;;;24.42;15.60;;;;;;;8.68;nan;101249.47;5039068;28;20474;-72
2022/12/30 10:01:26;;;;;;;51.60;35.93;;;;;;;8.74;nan;101259.22;5036040;28;20065;-70
2022/12/30 10:03:55;;;;;;;22.77;13.38;;;;;;;8.78;nan;101259.63;5035835;28;20025;-69
2022/12/30 10:06:28;;;;;;;24.58;14.73;;;;;;;8.80;nan;101270.75;5032226;28;20077;-71
2022/12/30 10:09:21;;;;;;;19.23;11.10;;;;;;;8.82;nan;101266.13;5039627;28;20040;-70
2022/12/30 10:12:02;;;;;;;27.95;13.85;;;;;;;8.84;nan;101270.19;5035835;28;20100;-70
2022/12/30 10:14:37;;;;;;;33.13;17.15;;;;;;;8.85;nan;101263.91;5031412;28;20033;-69
2022/12/30 10:17:21;;;;;;;31.73;16.50;;;;;;;8.85;nan;101266.53;5036850;28;20025;-69
2022/12/30 10:20:07;;;;;;;38.70;18.50;;;;;;;8.90;nan;101264.16;5041084;28;20143;-69
2022/12/30 10:22:57;;;;;;;47.47;25.38;;;;;;;8.94;nan;101254.06;5033016;28;20520;-69
2022/12/30 10:26:01;;;;;;;42.60;24.17;;;;;;;8.94;nan;101251.44;5036400;28;20052;-70
2022/12/30 10:28:36;;;;;;;31.95;18.02;;;;;;;8.94;nan;101246.19;5033299;28;20037;-70
2022/12/30 10:31:07;;;;;;;30.48;17.10;;;;;;;8.89;nan;101238.91;5033236;28;20029;-70
2022/12/30 10:33:35;;;;;;;36.55;24.00;;;;;;;8.92;nan;101240.31;5043771;28;20483;-69
2022/12/30 10:36:15;;;;;;;29.58;18.65;;;;;;;8.91;nan;101241.34;5036348;28;20033;-69
2022/12/30 10:38:41;;;;;;;26.67;15.85;;;;;;;8.99;nan;101251.69;5040697;28;20048;-69
2022/12/30 10:41:15;;;;;;;25.13;14.13;;;;;;;9.01;nan;101252.31;5034644;28;20036;-70
2022/12/30 10:43:50;;;;;;;45.15;29.85;;;;;;;9.00;nan;101242.78;5034706;28;20490;-71
2022/12/30 10:46:38;;;;;;;39.15;24.80;;;;;;;9.03;nan;101238.97;5039069;28;20117;-69
2022/12/30 10:49:31;;;;;;;32.17;20.57;;;;;;;9.03;nan;101228.47;5038866;28;20025;-70
2022/12/30 10:51:57;;;;;;;23.73;13.32;;;;;;;9.06;nan;101228.09;5055641;28;20033;-70
2022/12/30 10:54:23;;;;;;;23.90;12.90;;;;;;;9.05;nan;101229.91;5039890;28;20048;-72
2022/12/30 10:56:49;;;;;;;39.00;23.33;;;;;;;8.97;nan;101214.28;5035722;28;20017;-73
2022/12/30 10:59:19;;;;;;;22.80;13.35;;;;;;;8.99;nan;101201.75;5035512;28;20502;-71
2022/12/30 11:01:47;;;;;;;18.33;11.13;;;;;;;9.11;nan;101221.22;5054025;28;20399;-72
2022/12/30 11:04:36;;;;;;;22.60;14.20;;;;;;;9.14;nan;101214.78;5042609;28;20048;-71
2022/12/30 11:07:05;;;;;;;22.40;14.63;;;;;;;9.16;nan;101210.94;5033324;28;20108;-70
2022/12/30 11:09:31;;;;;;;20.50;12.57;;;;;;;9.18;nan;101204.69;5041058;28;20029;-72
2022/12/30 11:14:54;;;;;;;22.75;13.85;;;;;;;9.25;nan;101213.41;5031761;28;20033;-70
2022/12/30 11:17:23;;;;;;;24.33;15.63;;;;;;;9.20;nan;101192.97;5040254;28;20029;-72
2022/12/30 11:19:52;;;;;;;23.38;14.52;;;;;;;9.20;nan;101198.22;5035967;28;20100;-71
2022/12/30 11:22:18;;;;;;;21.08;13.32;;;;;;;9.29;nan;101201.47;5033234;28;20387;-71
2022/12/30 11:25:18;;;;;;;25.58;14.15;;;;;;;9.25;nan;101187.13;5036937;28;20065;-72
2022/12/30 11:27:49;;;;;;;25.02;12.43;;;;;;;9.41;nan;101209.63;5037887;28;20052;-71
2022/12/30 11:30:30;;;;;;;17.60;11.07;;;;;;;9.42;nan;101201.53;5046661;28;20036;-71
2022/12/30 11:32:58;;;;;;;18.58;11.07;;;;;;;9.45;nan;101195.88;5032968;28;20057;-73
2022/12/30 11:35:42;;;;;;;17.20;10.48;;;;;;;9.30;nan;101164.50;5039561;28;20033;-73
2022/12/30 11:38:28;;;;;;;18.17;10.73;;;;;;;9.46;nan;101188.84;5035783;28;20028;-73
2022/12/30 11:41:12;;;;;;;17.75;10.25;;;;;;;9.45;nan;101189.81;5036969;28;20399;-71
2022/12/30 11:43:37;;;;;;;19.73;11.38;;;;;;;9.44;nan;101189.03;5039301;28;20061;-73
2022/12/30 11:46:11;;;;;;;18.60;11.27;;;;;;;9.45;nan;101190.63;5039597;28;20091;-72
2022/12/30 11:48:52;;;;;;;20.77;13.13;;;;;;;9.50;nan;101192.66;5037178;28;20032;-70
2022/12/30 11:51:29;;;;;;;25.27;14.07;;;;;;;9.45;nan;101182.75;5034572;28;20029;-73
2022/12/30 11:54:11;;;;;;;23.88;13.57;;;;;;;9.44;nan;101178.50;5038500;28;20021;-69
2022/12/30 11:56:59;;;;;;;22.23;12.70;;;;;;;9.51;nan;101187.22;5032674;28;20083;-70
2022/12/30 11:59:31;;;;;;;19.25;11.90;;;;;;;9.52;nan;101182.75;5037410;28;20517;-69
2022/12/30 12:02:05;;;;;;;20.10;11.48;;;;;;;9.53;nan;101179.94;5047465;28;20025;-71
2022/12/30 12:04:40;;;;;;;18.75;11.07;;;;;;;9.53;nan;101177.31;5038490;28;20314;-69
2022/12/30 12:07:35;;;;;;;19.77;11.05;;;;;;;9.56;nan;101176.09;5040438;28;20106;-70
2022/12/30 12:10:07;;;;;;;17.25;10.60;;;;;;;9.54;nan;101172.88;5037069;28;20018;-70
2022/12/30 12:12:38;;;;;;;17.65;10.65;;;;;;;9.59;nan;101179.13;5032323;28;20021;-70
2022/12/30 12:15:22;;;;;;;17.08;10.38;;;;;;;9.61;nan;101173.69;5031796;28;20025;-70
2022/12/30 12:18:18;;;;;;;19.38;10.95;;;;;;;9.65;nan;101182.81;5037811;28;20025;-70
2022/12/30 12:20:46;;;;;;;20.33;13.18;;;;;;;9.67;nan;101183.41;5035101;28;20491;-70
2022/12/30 12:23:38;;;;;;;19.75;11.77;;;;;;;9.70;nan;101187.47;5038878;28;20082;-70
2022/12/30 12:26:11;;;;;;;19.58;10.48;;;;;;;9.38;nan;101129.34;5029852;28;20423;-70
2022/12/30 12:28:41;;;;;;;18.52;10.50;;;;;;;9.72;nan;101174.91;5032427;28;20088;-69
2022/12/30 12:31:09;;;;;;;17.73;11.02;;;;;;;9.76;nan;101176.13;5037399;28;20029;-70
2022/12/30 12:33:48;;;;;;;19.88;11.57;;;;;;;9.78;nan;101177.56;5032198;28;20384;-70
2022/12/30 12:36:32;;;;;;;17.80;10.95;;;;;;;9.78;nan;101171.50;5045622;28;20395;-70
2022/12/30 12:39:11;;;;;;;20.15;11.40;;;;;;;9.87;nan;101177.38;5035225;28;20735;-69
2022/12/30 12:41:49;;;;;;;20.38;11.73;;;;;;;9.89;nan;101181.44;5039166;28;20029;-69
2022/12/30 12:44:28;;;;;;;21.25;11.23;;;;;;;9.92;nan;101175.75;5030412;28;20026;-70
2022/12/30 12:47:18;;;;;;;18.35;11.55;;;;;;;9.94;nan;101179.00;5034530;28;20029;-69
2022/12/30 12:50:17;;;;;;;18.27;12.10;;;;;;;9.99;nan;101175.78;5036399;28;20044;-73
2022/12/30 12:52:49;;;;;;;23.85;12.30;;;;;;;10.01;nan;101179.00;5038579;28;20667;-69